Wednesday, October 17, 2018, 11:35 AM CDT
Back to Local

KIKK, Kankakee, Greater Kankakee Airport

Location: Kankakee, IL, United States Lat: 41.071
Local Time: 11:35 AM CDT (16:35 GMT) Lon: -87.846
Time Zone: US/Central Elev: 629 ft

Show me the last for .
Show Coded

Time T Td Feel RH Dir Speed Gust Alt SLP Vis Weather Sky Remarks
2018-10-17 11:15 47 30 39 52 360° 16 20 30.33 - 10 SCT035 None
2018-10-17 10:55 46 30 38 52 330° 18 24 30.32 - 10 SCT035 None
2018-10-17 10:35 46 30 40 53 330° 16 - 30.31 - 10 BKN035 None
2018-10-17 10:15 46 31 39 54 320° 15 21 30.30 - 10 SCT033 None
2018-10-17 09:55 45 31 36 56 330° 21 25 30.29 - 10 SCT031 None
2018-10-17 09:35 45 31 37 58 310° 16 21 30.29 - 10 SCT031 None
2018-10-17 09:15 45 31 36 59 310° 15 22 30.28 - 10 SCT031 None
2018-10-17 08:55 45 31 36 58 320° 15 24 30.27 - 10 CLR None
2018-10-17 08:35 45 32 35 60 310° 17 26 30.26 - 10 CLR None
2018-10-17 08:15 44 32 35 64 310° 13 21 30.25 - 10 CLR None
2018-10-17 07:55 40 33 35 75 280° 8 - 30.23 - 10 CLR None
2018-10-17 07:35 38 33 32 78 280° 9 - 30.22 - 10 CLR None
2018-10-17 07:15 38 32 32 78 280° 9 - 30.21 - 10 CLR None
2018-10-17 06:55 39 33 33 79 270° 8 - 30.20 - 10 CLR 6-hr Min Temp (7am): 38.5°F
6-hr Max Temp (7am): 45.0°F
2018-10-17 06:35 39 33 33 77 280° 9 - 30.19 - 10 CLR None
2018-10-17 06:15 39 33 33 79 270° 9 - 30.19 - 10 CLR None
2018-10-17 05:55 39 34 33 81 270° 9 - 30.18 - 10 CLR None
2018-10-17 05:35 40 35 34 82 270° 8 - 30.18 - 10 CLR None
2018-10-17 05:15 41 36 35 80 280° 9 - 30.17 - 10 CLR None
2018-10-17 04:55 40 36 35 82 270° 8 - 30.17 - 10 CLR None
2018-10-17 04:35 42 36 36 79 270° 8 - 30.16 - 10 CLR None
2018-10-17 04:15 42 37 36 81 270° 9 - 30.15 - 10 CLR None
2018-10-17 03:55 42 37 36 80 260° 9 - 30.15 - 10 CLR None
2018-10-17 03:35 42 37 36 80 270° 10 - 30.15 - 10 CLR None
2018-10-17 03:15 42 36 37 80 270° 8 - 30.14 - 10 CLR None
2018-10-17 02:55 42 37 37 80 270° 8 - 30.14 - 10 CLR None
2018-10-17 02:35 42 36 38 79 280° 7 - 30.13 - 10 CLR None
2018-10-17 02:15 43 37 38 78 280° 8 - 30.13 - 10 CLR None
2018-10-17 01:55 41 35 37 80 260° 6 - 30.13 - 10 CLR None
2018-10-17 01:35 42 36 38 77 250° 6 - 30.12 - 10 CLR None
2018-10-17 01:15 43 36 38 74 270° 8 - 30.13 - 10 CLR None
2018-10-17 00:55 45 36 40 70 280° 9 - 30.12 - 10 SCT070 6-hr Min Temp (1am): 45.0°F
6-hr Max Temp (1am): 50.9°F
24-hr Min Temp (1am): 30.2°F
24-hr Max Temp (1am): 57.2°F
2018-10-17 00:35 46 36 41 68 280° 9 - 30.13 - 10 SCT070 None
2018-10-17 00:15 46 36 41 67 270° 9 - 30.12 - 10 CLR None
2018-10-16 23:55 47 35 42 64 260° 10 - 30.12 - 10 CLR None
2018-10-16 22:55 49 34 43 57 260° 16 - 30.11 - 10 CLR None
2018-10-16 22:35 48 34 43 57 250° 14 - 30.11 - 10 CLR None
2018-10-16 22:15 47 34 42 60 250° 10 - 30.11 - 10 CLR None
2018-10-16 21:55 47 33 41 59 240° 13 - 30.11 - 10 CLR None
2018-10-16 21:35 47 33 41 59 230° 13 - 30.12 - 10 CLR None
2018-10-16 21:15 46 33 41 60 230° 10 - 30.12 - 10 CLR None
2018-10-16 20:55 46 33 41 59 230° 12 - 30.11 - 10 CLR None
2018-10-16 20:35 46 33 41 58 230° 10 - 30.10 - 10 CLR None
2018-10-16 20:15 47 32 42 56 230° 10 - 30.10 - 10 CLR None
2018-10-16 19:55 47 32 42 55 230° 10 - 30.10 - 10 CLR None
2018-10-16 19:35 48 32 44 53 230° 9 - 30.10 - 10 CLR None
2018-10-16 19:15 50 32 44 50 230° 10 16 30.09 - 10 CLR None
2018-10-16 18:55 51 31 - 46 230° 12 - 30.09 - 10 CLR 6-hr Min Temp (7pm): 50.9°F
6-hr Max Temp (7pm): 57.2°F
2018-10-16 18:35 52 31 - 44 240° 14 - 30.08 - 10 CLR None
2018-10-16 18:15 53 31 - 43 240° 12 - 30.07 - 10 CLR None
2018-10-16 17:55 54 30 - 40 250° 13 20 30.07 - 10 CLR None
2018-10-16 17:35 55 30 - 38 240° 13 18 30.07 - 10 CLR None
2018-10-16 17:15 56 29 - 36 240° 16 23 30.07 - 10 CLR None
2018-10-16 16:55 56 29 - 35 250° 20 25 30.07 - 10 CLR None
2018-10-16 16:35 57 31 - 36 250° 16 22 30.07 - 10 CLR None
2018-10-16 16:15 57 29 - 35 240° 18 24 30.08 - 10 CLR None
2018-10-16 15:55 57 29 - 34 230° 20 26 30.09 - 10 CLR None
2018-10-16 15:35 57 29 - 34 240° 17 23 30.08 - 10 CLR None
2018-10-16 15:15 57 29 - 33 240° 18 25 30.09 - 10 CLR None
2018-10-16 14:55 56 28 - 33 240° 18 25 30.10 - 10 CLR None
2018-10-16 14:35 56 28 - 33 240° 16 29 30.10 - 10 CLR None
2018-10-16 14:15 56 28 - 33 250° 18 26 30.12 - 10 CLR None
2018-10-16 13:55 55 27 - 33 240° 16 20 30.13 - 10 CLR None
2018-10-16 13:35 55 27 - 33 240° 20 29 30.14 - 10 CLR None
2018-10-16 13:15 55 28 - 35 250° 18 26 30.15 - 10 CLR None
2018-10-16 12:55 54 28 - 37 250° 24 28 30.16 - 10 CLR 6-hr Min Temp (1pm): 32.0°F
6-hr Max Temp (1pm): 54.0°F
2018-10-16 12:35 53 28 - 37 240° 22 25 30.17 - 10 CLR None
2018-10-16 12:15 53 30 - 41 250° 16 - 30.19 - 10 CLR None
2018-10-16 11:55 51 30 - 44 240° 20 26 30.20 - 10 CLR None

Support USWX by starting your Amazon purchase here.